sensor_id;sensor_type;location;lat;lon;timestamp;temperature;humidity
82991;DHT22;72806;50.832;4.864;2023-11-18T00:00:22;8.10;91.40
82991;DHT22;72806;50.832;4.864;2023-11-18T00:02:50;8.00;91.50
82991;DHT22;72806;50.832;4.864;2023-11-18T00:05:17;8.00;91.50
82991;DHT22;72806;50.832;4.864;2023-11-18T00:07:45;8.00;91.50
82991;DHT22;72806;50.832;4.864;2023-11-18T00:10:12;8.00;91.50
82991;DHT22;72806;50.832;4.864;2023-11-18T00:12:39;8.10;91.50
82991;DHT22;72806;50.832;4.864;2023-11-18T00:15:07;8.10;91.50
82991;DHT22;72806;50.832;4.864;2023-11-18T00:17:36;8.10;91.40
82991;DHT22;72806;50.832;4.864;2023-11-18T00:20:05;8.10;91.40
82991;DHT22;72806;50.832;4.864;2023-11-18T00:22:35;8.10;91.40
82991;DHT22;72806;50.832;4.864;2023-11-18T00:25:03;8.00;91.40
82991;DHT22;72806;50.832;4.864;2023-11-18T00:27:33;8.00;91.40
82991;DHT22;72806;50.832;4.864;2023-11-18T00:30:02;8.00;91.50
82991;DHT22;72806;50.832;4.864;2023-11-18T00:32:31;8.00;91.40
82991;DHT22;72806;50.832;4.864;2023-11-18T00:34:58;8.00;91.40
82991;DHT22;72806;50.832;4.864;2023-11-18T00:37:26;8.10;91.40
82991;DHT22;72806;50.832;4.864;2023-11-18T00:39:53;8.10;91.30
82991;DHT22;72806;50.832;4.864;2023-11-18T00:42:21;8.10;91.30
82991;DHT22;72806;50.832;4.864;2023-11-18T00:44:48;8.10;91.30
82991;DHT22;72806;50.832;4.864;2023-11-18T00:47:15;8.10;91.30
82991;DHT22;72806;50.832;4.864;2023-11-18T00:49:42;8.10;91.30
82991;DHT22;72806;50.832;4.864;2023-11-18T00:52:09;8.10;91.20
82991;DHT22;72806;50.832;4.864;2023-11-18T00:54:37;8.10;91.20
82991;DHT22;72806;50.832;4.864;2023-11-18T00:57:04;8.10;91.20
82991;DHT22;72806;50.832;4.864;2023-11-18T00:59:33;8.10;91.30
82991;DHT22;72806;50.832;4.864;2023-11-18T01:02:00;8.10;91.30
82991;DHT22;72806;50.832;4.864;2023-11-18T01:04:29;8.10;91.20
82991;DHT22;72806;50.832;4.864;2023-11-18T01:06:58;8.10;91.20
82991;DHT22;72806;50.832;4.864;2023-11-18T01:09:25;8.00;91.20
82991;DHT22;72806;50.832;4.864;2023-11-18T01:11:53;8.00;91.30
82991;DHT22;72806;50.832;4.864;2023-11-18T01:14:20;8.00;91.30
82991;DHT22;72806;50.832;4.864;2023-11-18T01:16:50;8.00;91.30
82991;DHT22;72806;50.832;4.864;2023-11-18T01:19:18;8.00;91.30
82991;DHT22;72806;50.832;4.864;2023-11-18T01:21:46;8.00;91.30
82991;DHT22;72806;50.832;4.864;2023-11-18T01:24:13;8.00;91.30
82991;DHT22;72806;50.832;4.864;2023-11-18T01:26:41;8.00;91.30
82991;DHT22;72806;50.832;4.864;2023-11-18T01:29:08;8.00;91.40
82991;DHT22;72806;50.832;4.864;2023-11-18T01:31:35;8.00;91.40
82991;DHT22;72806;50.832;4.864;2023-11-18T01:34:04;8.00;91.40
82991;DHT22;72806;50.832;4.864;2023-11-18T01:36:31;8.00;91.30
82991;DHT22;72806;50.832;4.864;2023-11-18T01:38:58;8.00;91.30
82991;DHT22;72806;50.832;4.864;2023-11-18T01:41:25;8.00;91.30
82991;DHT22;72806;50.832;4.864;2023-11-18T01:43:52;8.00;91.30
82991;DHT22;72806;50.832;4.864;2023-11-18T01:46:19;8.10;91.40
82991;DHT22;72806;50.832;4.864;2023-11-18T01:48:49;8.10;91.40
82991;DHT22;72806;50.832;4.864;2023-11-18T01:51:19;8.10;91.40
82991;DHT22;72806;50.832;4.864;2023-11-18T01:53:47;8.10;91.40
82991;DHT22;72806;50.832;4.864;2023-11-18T01:56:16;8.20;91.40
82991;DHT22;72806;50.832;4.864;2023-11-18T01:58:44;8.20;91.40
82991;DHT22;72806;50.832;4.864;2023-11-18T02:01:12;8.20;91.40
82991;DHT22;72806;50.832;4.864;2023-11-18T02:03:43;8.20;91.40
82991;DHT22;72806;50.832;4.864;2023-11-18T02:06:10;8.20;91.40
82991;DHT22;72806;50.832;4.864;2023-11-18T02:08:39;8.20;91.40
82991;DHT22;72806;50.832;4.864;2023-11-18T02:11:13;8.20;91.40
82991;DHT22;72806;50.832;4.864;2023-11-18T02:13:42;8.20;91.40
82991;DHT22;72806;50.832;4.864;2023-11-18T02:16:11;8.20;91.40
82991;DHT22;72806;50.832;4.864;2023-11-18T02:18:39;8.20;91.30
82991;DHT22;72806;50.832;4.864;2023-11-18T02:21:10;8.20;91.30
82991;DHT22;72806;50.832;4.864;2023-11-18T02:23:41;8.20;91.30
82991;DHT22;72806;50.832;4.864;2023-11-18T02:26:10;8.20;91.30
82991;DHT22;72806;50.832;4.864;2023-11-18T02:28:37;8.30;91.30
82991;DHT22;72806;50.832;4.864;2023-11-18T02:31:08;8.30;91.30
82991;DHT22;72806;50.832;4.864;2023-11-18T02:33:46;8.30;91.30
82991;DHT22;72806;50.832;4.864;2023-11-18T02:36:23;8.30;91.40
82991;DHT22;72806;50.832;4.864;2023-11-18T02:38:51;8.30;91.40
82991;DHT22;72806;50.832;4.864;2023-11-18T02:41:22;8.30;91.40
82991;DHT22;72806;50.832;4.864;2023-11-18T02:43:50;8.30;91.40
82991;DHT22;72806;50.832;4.864;2023-11-18T02:46:17;9.40;91.70
82991;DHT22;72806;50.832;4.864;2023-11-18T02:48:45;8.40;91.40
82991;DHT22;72806;50.832;4.864;2023-11-18T02:51:12;8.40;91.40
82991;DHT22;72806;50.832;4.864;2023-11-18T02:53:38;8.40;91.40
82991;DHT22;72806;50.832;4.864;2023-11-18T02:56:08;8.40;91.50
82991;DHT22;72806;50.832;4.864;2023-11-18T02:58:36;8.40;91.50
82991;DHT22;72806;50.832;4.864;2023-11-18T03:01:04;8.50;91.60
82991;DHT22;72806;50.832;4.864;2023-11-18T03:03:31;8.40;91.50
82991;DHT22;72806;50.832;4.864;2023-11-18T03:05:58;8.50;91.50
82991;DHT22;72806;50.832;4.864;2023-11-18T03:08:25;8.40;91.60
82991;DHT22;72806;50.832;4.864;2023-11-18T03:10:55;8.40;91.60
82991;DHT22;72806;50.832;4.864;2023-11-18T03:13:24;8.40;91.60
82991;DHT22;72806;50.832;4.864;2023-11-18T03:15:53;8.40;91.60
82991;DHT22;72806;50.832;4.864;2023-11-18T03:18:20;8.40;91.60
82991;DHT22;72806;50.832;4.864;2023-11-18T03:20:47;6.70;91.00
82991;DHT22;72806;50.832;4.864;2023-11-18T03:23:14;8.30;91.40
82991;DHT22;72806;50.832;4.864;2023-11-18T03:25:41;8.30;91.40
82991;DHT22;72806;50.832;4.864;2023-11-18T03:28:09;8.30;91.40
82991;DHT22;72806;50.832;4.864;2023-11-18T03:30:36;8.30;91.40
82991;DHT22;72806;50.832;4.864;2023-11-18T03:33:04;6.60;90.90
82991;DHT22;72806;50.832;4.864;2023-11-18T03:35:36;8.30;91.40
82991;DHT22;72806;50.832;4.864;2023-11-18T03:38:04;8.30;91.50
82991;DHT22;72806;50.832;4.864;2023-11-18T03:40:31;8.30;91.50
82991;DHT22;72806;50.832;4.864;2023-11-18T03:43:00;8.30;91.50
82991;DHT22;72806;50.832;4.864;2023-11-18T03:45:28;8.30;91.40
82991;DHT22;72806;50.832;4.864;2023-11-18T03:47:56;8.30;91.40
82991;DHT22;72806;50.832;4.864;2023-11-18T03:50:24;8.40;91.50
82991;DHT22;72806;50.832;4.864;2023-11-18T03:52:52;8.40;91.50
82991;DHT22;72806;50.832;4.864;2023-11-18T03:55:19;8.40;91.60
82991;DHT22;72806;50.832;4.864;2023-11-18T03:57:46;8.40;91.60
82991;DHT22;72806;50.832;4.864;2023-11-18T04:00:16;8.50;91.60
82991;DHT22;72806;50.832;4.864;2023-11-18T04:02:43;8.50;91.70
82991;DHT22;72806;50.832;4.864;2023-11-18T04:05:11;8.50;91.70
82991;DHT22;72806;50.832;4.864;2023-11-18T04:07:40;8.50;91.70
82991;DHT22;72806;50.832;4.864;2023-11-18T04:10:08;8.50;91.70
82991;DHT22;72806;50.832;4.864;2023-11-18T04:12:36;8.60;91.80
82991;DHT22;72806;50.832;4.864;2023-11-18T04:15:04;8.60;91.70
82991;DHT22;72806;50.832;4.864;2023-11-18T04:17:31;8.60;91.80
82991;DHT22;72806;50.832;4.864;2023-11-18T04:19:58;8.60;91.80
82991;DHT22;72806;50.832;4.864;2023-11-18T04:22:25;8.60;91.80
82991;DHT22;72806;50.832;4.864;2023-11-18T04:24:54;8.70;91.80
82991;DHT22;72806;50.832;4.864;2023-11-18T04:27:20;8.60;91.80
82991;DHT22;72806;50.832;4.864;2023-11-18T04:29:48;8.70;91.80
82991;DHT22;72806;50.832;4.864;2023-11-18T04:32:15;8.70;91.80
82991;DHT22;72806;50.832;4.864;2023-11-18T04:34:42;8.70;91.80
82991;DHT22;72806;50.832;4.864;2023-11-18T04:37:09;8.70;91.80
82991;DHT22;72806;50.832;4.864;2023-11-18T04:39:36;8.60;91.90
82991;DHT22;72806;50.832;4.864;2023-11-18T04:42:05;8.70;92.00
82991;DHT22;72806;50.832;4.864;2023-11-18T04:44:32;8.70;91.90
82991;DHT22;72806;50.832;4.864;2023-11-18T04:46:59;8.70;91.90
82991;DHT22;72806;50.832;4.864;2023-11-18T04:49:26;8.70;91.90
82991;DHT22;72806;50.832;4.864;2023-11-18T04:51:53;8.70;92.00
82991;DHT22;72806;50.832;4.864;2023-11-18T04:54:20;8.70;92.00
82991;DHT22;72806;50.832;4.864;2023-11-18T04:56:47;8.80;92.00
82991;DHT22;72806;50.832;4.864;2023-11-18T04:59:15;8.80;92.00
82991;DHT22;72806;50.832;4.864;2023-11-18T05:01:43;8.80;92.00
82991;DHT22;72806;50.832;4.864;2023-11-18T05:04:10;8.80;92.00
82991;DHT22;72806;50.832;4.864;2023-11-18T05:06:37;8.70;92.00
82991;DHT22;72806;50.832;4.864;2023-11-18T05:09:04;8.70;92.00
82991;DHT22;72806;50.832;4.864;2023-11-18T05:11:33;8.70;92.00
82991;DHT22;72806;50.832;4.864;2023-11-18T05:14:01;8.70;92.00
82991;DHT22;72806;50.832;4.864;2023-11-18T05:16:30;8.60;92.00
82991;DHT22;72806;50.832;4.864;2023-11-18T05:18:57;8.60;92.10
82991;DHT22;72806;50.832;4.864;2023-11-18T05:21:24;8.70;92.10
82991;DHT22;72806;50.832;4.864;2023-11-18T05:23:51;8.70;92.10
82991;DHT22;72806;50.832;4.864;2023-11-18T05:26:18;8.80;92.10
82991;DHT22;72806;50.832;4.864;2023-11-18T05:28:45;8.70;92.00
82991;DHT22;72806;50.832;4.864;2023-11-18T05:31:15;8.80;92.10
82991;DHT22;72806;50.832;4.864;2023-11-18T05:33:43;8.80;92.10
82991;DHT22;72806;50.832;4.864;2023-11-18T05:36:11;8.80;92.10
82991;DHT22;72806;50.832;4.864;2023-11-18T05:38:37;8.80;92.00
82991;DHT22;72806;50.832;4.864;2023-11-18T05:41:04;8.90;92.10
82991;DHT22;72806;50.832;4.864;2023-11-18T05:43:42;10.50;92.50
82991;DHT22;72806;50.832;4.864;2023-11-18T05:46:16;8.80;92.00
82991;DHT22;72806;50.832;4.864;2023-11-18T05:48:48;8.80;92.00
82991;DHT22;72806;50.832;4.864;2023-11-18T05:51:19;8.90;91.80
82991;DHT22;72806;50.832;4.864;2023-11-18T05:53:47;8.90;92.10
82991;DHT22;72806;50.832;4.864;2023-11-18T05:56:15;8.80;92.00
82991;DHT22;72806;50.832;4.864;2023-11-18T05:58:43;8.90;92.00
82991;DHT22;72806;50.832;4.864;2023-11-18T06:01:10;8.80;92.00
82991;DHT22;72806;50.832;4.864;2023-11-18T06:03:37;8.80;92.10
82991;DHT22;72806;50.832;4.864;2023-11-18T06:06:07;8.80;92.10
82991;DHT22;72806;50.832;4.864;2023-11-18T06:08:35;8.80;92.10
82991;DHT22;72806;50.832;4.864;2023-11-18T06:11:04;8.90;92.40
82991;DHT22;72806;50.832;4.864;2023-11-18T06:13:39;8.90;92.10
82991;DHT22;72806;50.832;4.864;2023-11-18T06:16:09;8.90;92.10
82991;DHT22;72806;50.832;4.864;2023-11-18T06:18:40;8.90;92.10
82991;DHT22;72806;50.832;4.864;2023-11-18T06:21:12;9.00;92.10
82991;DHT22;72806;50.832;4.864;2023-11-18T06:23:40;9.00;92.10
82991;DHT22;72806;50.832;4.864;2023-11-18T06:26:07;10.40;92.50
82991;DHT22;72806;50.832;4.864;2023-11-18T06:28:36;9.10;92.20
82991;DHT22;72806;50.832;4.864;2023-11-18T06:31:04;9.20;92.20
82991;DHT22;72806;50.832;4.864;2023-11-18T06:33:36;9.20;92.20
82991;DHT22;72806;50.832;4.864;2023-11-18T06:36:06;9.20;92.20
82991;DHT22;72806;50.832;4.864;2023-11-18T06:38:35;9.30;92.20
82991;DHT22;72806;50.832;4.864;2023-11-18T06:41:02;9.30;92.20
82991;DHT22;72806;50.832;4.864;2023-11-18T06:43:31;9.30;92.20
82991;DHT22;72806;50.832;4.864;2023-11-18T06:46:11;9.30;92.20
82991;DHT22;72806;50.832;4.864;2023-11-18T06:48:39;9.30;92.30
82991;DHT22;72806;50.832;4.864;2023-11-18T06:51:07;9.30;92.30
82991;DHT22;72806;50.832;4.864;2023-11-18T06:53:36;9.30;92.30
82991;DHT22;72806;50.832;4.864;2023-11-18T06:56:03;9.40;92.30
82991;DHT22;72806;50.832;4.864;2023-11-18T06:58:30;9.40;92.30
82991;DHT22;72806;50.832;4.864;2023-11-18T07:00:57;9.40;92.30
82991;DHT22;72806;50.832;4.864;2023-11-18T07:03:24;9.50;92.30
82991;DHT22;72806;50.832;4.864;2023-11-18T07:05:51;9.50;92.30
82991;DHT22;72806;50.832;4.864;2023-11-18T07:08:18;9.50;92.30
82991;DHT22;72806;50.832;4.864;2023-11-18T07:10:46;9.50;92.30
82991;DHT22;72806;50.832;4.864;2023-11-18T07:13:14;9.50;92.30
82991;DHT22;72806;50.832;4.864;2023-11-18T07:15:42;9.60;92.30
82991;DHT22;72806;50.832;4.864;2023-11-18T07:18:10;9.60;92.30
82991;DHT22;72806;50.832;4.864;2023-11-18T07:20:37;9.60;92.30
82991;DHT22;72806;50.832;4.864;2023-11-18T07:23:04;9.60;92.30
82991;DHT22;72806;50.832;4.864;2023-11-18T07:25:31;9.60;92.20
82991;DHT22;72806;50.832;4.864;2023-11-18T07:28:01;9.60;92.30
82991;DHT22;72806;50.832;4.864;2023-11-18T07:30:28;9.60;92.30
82991;DHT22;72806;50.832;4.864;2023-11-18T07:32:55;9.60;92.30
82991;DHT22;72806;50.832;4.864;2023-11-18T07:35:24;9.60;92.30
82991;DHT22;72806;50.832;4.864;2023-11-18T07:37:52;9.60;92.30
82991;DHT22;72806;50.832;4.864;2023-11-18T07:40:20;9.60;92.30
82991;DHT22;72806;50.832;4.864;2023-11-18T07:42:53;9.60;92.30
82991;DHT22;72806;50.832;4.864;2023-11-18T07:45:22;9.60;92.30
82991;DHT22;72806;50.832;4.864;2023-11-18T07:47:49;9.60;92.30
82991;DHT22;72806;50.832;4.864;2023-11-18T07:50:17;9.70;92.40
82991;DHT22;72806;50.832;4.864;2023-11-18T07:52:46;9.70;92.50
82991;DHT22;72806;50.832;4.864;2023-11-18T07:55:14;9.70;92.40
82991;DHT22;72806;50.832;4.864;2023-11-18T07:57:42;9.80;92.40
82991;DHT22;72806;50.832;4.864;2023-11-18T08:00:15;9.80;92.30
82991;DHT22;72806;50.832;4.864;2023-11-18T08:02:43;9.80;92.40
82991;DHT22;72806;50.832;4.864;2023-11-18T08:05:11;9.80;92.40
82991;DHT22;72806;50.832;4.864;2023-11-18T08:07:39;9.80;92.40
82991;DHT22;72806;50.832;4.864;2023-11-18T08:10:07;9.80;92.40
82991;DHT22;72806;50.832;4.864;2023-11-18T08:12:38;9.80;92.40
82991;DHT22;72806;50.832;4.864;2023-11-18T08:15:06;9.80;92.40
82991;DHT22;72806;50.832;4.864;2023-11-18T08:17:34;9.90;92.50
82991;DHT22;72806;50.832;4.864;2023-11-18T08:20:03;9.90;92.40
82991;DHT22;72806;50.832;4.864;2023-11-18T08:22:32;9.90;92.50
82991;DHT22;72806;50.832;4.864;2023-11-18T08:25:00;9.90;92.50
82991;DHT22;72806;50.832;4.864;2023-11-18T08:27:27;9.90;92.50
82991;DHT22;72806;50.832;4.864;2023-11-18T08:29:53;10.00;92.50
82991;DHT22;72806;50.832;4.864;2023-11-18T08:32:21;9.90;92.50
82991;DHT22;72806;50.832;4.864;2023-11-18T08:34:50;10.00;92.50
82991;DHT22;72806;50.832;4.864;2023-11-18T08:37:19;10.00;92.50
82991;DHT22;72806;50.832;4.864;2023-11-18T08:39:46;10.00;92.50
82991;DHT22;72806;50.832;4.864;2023-11-18T08:42:13;10.00;92.50
82991;DHT22;72806;50.832;4.864;2023-11-18T08:44:42;10.00;92.60
82991;DHT22;72806;50.832;4.864;2023-11-18T08:47:09;10.00;92.60
82991;DHT22;72806;50.832;4.864;2023-11-18T08:49:38;10.10;92.60
82991;DHT22;72806;50.832;4.864;2023-11-18T08:52:06;10.10;92.60
82991;DHT22;72806;50.832;4.864;2023-11-18T08:54:37;10.10;92.90
82991;DHT22;72806;50.832;4.864;2023-11-18T08:57:04;10.10;92.60
82991;DHT22;72806;50.832;4.864;2023-11-18T08:59:49;10.10;92.60
82991;DHT22;72806;50.832;4.864;2023-11-18T09:02:18;10.20;92.60
82991;DHT22;72806;50.832;4.864;2023-11-18T09:04:48;10.20;92.70
82991;DHT22;72806;50.832;4.864;2023-11-18T09:07:16;10.20;92.70
82991;DHT22;72806;50.832;4.864;2023-11-18T09:09:46;10.20;92.70
82991;DHT22;72806;50.832;4.864;2023-11-18T09:12:15;10.20;92.70
82991;DHT22;72806;50.832;4.864;2023-11-18T09:14:44;10.20;92.70
82991;DHT22;72806;50.832;4.864;2023-11-18T09:17:13;10.30;92.70
82991;DHT22;72806;50.832;4.864;2023-11-18T09:19:40;10.30;92.70
82991;DHT22;72806;50.832;4.864;2023-11-18T09:22:07;10.20;92.70
82991;DHT22;72806;50.832;4.864;2023-11-18T09:24:38;10.20;92.70
82991;DHT22;72806;50.832;4.864;2023-11-18T09:27:07;10.20;92.70
82991;DHT22;72806;50.832;4.864;2023-11-18T09:29:35;10.30;92.80
82991;DHT22;72806;50.832;4.864;2023-11-18T09:32:02;10.30;92.80
82991;DHT22;72806;50.832;4.864;2023-11-18T09:34:31;10.30;92.80
82991;DHT22;72806;50.832;4.864;2023-11-18T09:36:58;10.30;92.80
82991;DHT22;72806;50.832;4.864;2023-11-18T09:39:25;10.30;92.80
82991;DHT22;72806;50.832;4.864;2023-11-18T09:42:07;10.30;92.80
82991;DHT22;72806;50.832;4.864;2023-11-18T09:44:36;10.30;92.90
82991;DHT22;72806;50.832;4.864;2023-11-18T09:47:07;10.40;92.90
82991;DHT22;72806;50.832;4.864;2023-11-18T09:49:40;10.40;92.90
82991;DHT22;72806;50.832;4.864;2023-11-18T09:52:16;10.40;92.90
82991;DHT22;72806;50.832;4.864;2023-11-18T09:54:53;10.50;93.00
82991;DHT22;72806;50.832;4.864;2023-11-18T09:57:30;10.50;93.00
82991;DHT22;72806;50.832;4.864;2023-11-18T10:00:02;10.50;93.00
82991;DHT22;72806;50.832;4.864;2023-11-18T10:02:45;10.60;93.00
82991;DHT22;72806;50.832;4.864;2023-11-18T10:05:13;10.60;93.00
82991;DHT22;72806;50.832;4.864;2023-11-18T10:07:46;10.70;93.00
82991;DHT22;72806;50.832;4.864;2023-11-18T10:10:14;10.60;93.00
82991;DHT22;72806;50.832;4.864;2023-11-18T10:12:43;10.60;93.00
82991;DHT22;72806;50.832;4.864;2023-11-18T10:15:13;10.60;93.00
82991;DHT22;72806;50.832;4.864;2023-11-18T10:17:42;10.60;93.00
82991;DHT22;72806;50.832;4.864;2023-11-18T10:20:21;10.70;93.10
82991;DHT22;72806;50.832;4.864;2023-11-18T10:23:05;10.60;93.10
82991;DHT22;72806;50.832;4.864;2023-11-18T10:25:36;10.60;93.10
82991;DHT22;72806;50.832;4.864;2023-11-18T10:28:08;10.60;93.10
82991;DHT22;72806;50.832;4.864;2023-11-18T10:30:48;10.70;93.20
82991;DHT22;72806;50.832;4.864;2023-11-18T10:33:17;10.70;93.20
82991;DHT22;72806;50.832;4.864;2023-11-18T10:35:50;10.70;93.20
82991;DHT22;72806;50.832;4.864;2023-11-18T10:38:22;10.70;93.20
82991;DHT22;72806;50.832;4.864;2023-11-18T10:40:53;10.70;93.20
82991;DHT22;72806;50.832;4.864;2023-11-18T10:43:22;10.80;93.30
82991;DHT22;72806;50.832;4.864;2023-11-18T10:45:51;10.80;93.30
82991;DHT22;72806;50.832;4.864;2023-11-18T10:48:19;10.80;93.30
82991;DHT22;72806;50.832;4.864;2023-11-18T10:50:47;10.80;93.40
82991;DHT22;72806;50.832;4.864;2023-11-18T10:53:16;10.80;93.30
82991;DHT22;72806;50.832;4.864;2023-11-18T10:55:43;10.80;93.30
82991;DHT22;72806;50.832;4.864;2023-11-18T10:58:10;10.90;93.30
82991;DHT22;72806;50.832;4.864;2023-11-18T11:00:48;10.90;93.30
82991;DHT22;72806;50.832;4.864;2023-11-18T11:03:16;10.90;93.30
82991;DHT22;72806;50.832;4.864;2023-11-18T11:05:44;10.90;93.30
82991;DHT22;72806;50.832;4.864;2023-11-18T11:08:14;10.90;93.30
82991;DHT22;72806;50.832;4.864;2023-11-18T11:10:42;10.90;93.40
82991;DHT22;72806;50.832;4.864;2023-11-18T11:13:09;10.90;93.40
82991;DHT22;72806;50.832;4.864;2023-11-18T11:15:43;10.90;93.30
82991;DHT22;72806;50.832;4.864;2023-11-18T11:18:13;11.00;93.40
82991;DHT22;72806;50.832;4.864;2023-11-18T11:20:57;11.00;93.30
82991;DHT22;72806;50.832;4.864;2023-11-18T11:23:35;9.60;92.90
82991;DHT22;72806;50.832;4.864;2023-11-18T11:26:17;11.00;93.30
82991;DHT22;72806;50.832;4.864;2023-11-18T11:28:55;10.90;93.30
82991;DHT22;72806;50.832;4.864;2023-11-18T11:31:31;10.90;93.30
82991;DHT22;72806;50.832;4.864;2023-11-18T11:34:02;10.90;93.30
82991;DHT22;72806;50.832;4.864;2023-11-18T11:36:37;10.90;93.40
82991;DHT22;72806;50.832;4.864;2023-11-18T11:39:08;10.90;93.40
82991;DHT22;72806;50.832;4.864;2023-11-18T11:41:44;10.90;93.40
82991;DHT22;72806;50.832;4.864;2023-11-18T11:44:13;11.00;93.40
82991;DHT22;72806;50.832;4.864;2023-11-18T11:46:40;11.00;93.40
82991;DHT22;72806;50.832;4.864;2023-11-18T11:49:11;11.00;93.40
82991;DHT22;72806;50.832;4.864;2023-11-18T11:51:49;11.00;93.40
82991;DHT22;72806;50.832;4.864;2023-11-18T11:54:20;11.00;93.40
82991;DHT22;72806;50.832;4.864;2023-11-18T11:56:49;11.00;93.40
82991;DHT22;72806;50.832;4.864;2023-11-18T11:59:35;11.00;93.40
82991;DHT22;72806;50.832;4.864;2023-11-18T12:02:03;11.00;93.50
82991;DHT22;72806;50.832;4.864;2023-11-18T12:04:34;11.10;93.50
82991;DHT22;72806;50.832;4.864;2023-11-18T12:07:04;11.10;93.50
82991;DHT22;72806;50.832;4.864;2023-11-18T12:09:32;11.10;93.50
82991;DHT22;72806;50.832;4.864;2023-11-18T12:12:04;11.10;93.60
82991;DHT22;72806;50.832;4.864;2023-11-18T12:14:49;11.20;93.70
82991;DHT22;72806;50.832;4.864;2023-11-18T12:17:18;11.20;93.80
82991;DHT22;72806;50.832;4.864;2023-11-18T12:19:49;11.30;93.80
82991;DHT22;72806;50.832;4.864;2023-11-18T12:22:24;11.30;93.80
82991;DHT22;72806;50.832;4.864;2023-11-18T12:28:14;11.40;93.80
82991;DHT22;72806;50.832;4.864;2023-11-18T12:30:42;11.40;93.70
82991;DHT22;72806;50.832;4.864;2023-11-18T12:33:22;11.40;93.70
82991;DHT22;72806;50.832;4.864;2023-11-18T12:36:22;11.40;93.60
82991;DHT22;72806;50.832;4.864;2023-11-18T12:42:02;11.30;93.60
82991;DHT22;72806;50.832;4.864;2023-11-18T12:44:36;11.30;93.60
82991;DHT22;72806;50.832;4.864;2023-11-18T12:47:06;11.30;93.60
82991;DHT22;72806;50.832;4.864;2023-11-18T12:49:41;11.30;93.60
82991;DHT22;72806;50.832;4.864;2023-11-18T12:52:10;11.30;93.60
82991;DHT22;72806;50.832;4.864;2023-11-18T12:54:40;11.20;93.60
82991;DHT22;72806;50.832;4.864;2023-11-18T12:57:09;11.30;93.60
82991;DHT22;72806;50.832;4.864;2023-11-18T12:59:40;11.30;93.60
82991;DHT22;72806;50.832;4.864;2023-11-18T13:02:07;11.30;93.60
82991;DHT22;72806;50.832;4.864;2023-11-18T13:04:39;11.30;93.60
82991;DHT22;72806;50.832;4.864;2023-11-18T13:07:07;11.30;93.70
82991;DHT22;72806;50.832;4.864;2023-11-18T13:09:38;11.30;93.60
82991;DHT22;72806;50.832;4.864;2023-11-18T13:12:07;11.20;93.60
82991;DHT22;72806;50.832;4.864;2023-11-18T13:14:35;11.20;93.60
82991;DHT22;72806;50.832;4.864;2023-11-18T13:17:03;11.20;93.70
82991;DHT22;72806;50.832;4.864;2023-11-18T13:19:32;11.20;93.70
82991;DHT22;72806;50.832;4.864;2023-11-18T13:22:00;11.20;93.70
82991;DHT22;72806;50.832;4.864;2023-11-18T13:24:29;11.20;93.80
82991;DHT22;72806;50.832;4.864;2023-11-18T13:26:59;11.10;93.80
82991;DHT22;72806;50.832;4.864;2023-11-18T13:29:29;11.10;93.80
82991;DHT22;72806;50.832;4.864;2023-11-18T13:31:57;11.10;93.80
82991;DHT22;72806;50.832;4.864;2023-11-18T13:34:26;11.10;93.90
82991;DHT22;72806;50.832;4.864;2023-11-18T13:36:56;11.10;93.90
82991;DHT22;72806;50.832;4.864;2023-11-18T13:39:23;11.10;93.90
82991;DHT22;72806;50.832;4.864;2023-11-18T13:41:53;11.10;94.00
82991;DHT22;72806;50.832;4.864;2023-11-18T13:44:39;11.20;94.10
82991;DHT22;72806;50.832;4.864;2023-11-18T13:47:10;11.20;94.10
82991;DHT22;72806;50.832;4.864;2023-11-18T13:49:38;11.20;94.10
82991;DHT22;72806;50.832;4.864;2023-11-18T13:52:06;11.20;94.10
82991;DHT22;72806;50.832;4.864;2023-11-18T13:54:35;11.20;94.10
82991;DHT22;72806;50.832;4.864;2023-11-18T13:57:03;11.20;94.20
82991;DHT22;72806;50.832;4.864;2023-11-18T13:59:30;11.20;94.20
82991;DHT22;72806;50.832;4.864;2023-11-18T14:01:59;11.30;94.20
82991;DHT22;72806;50.832;4.864;2023-11-18T14:04:28;11.30;94.20
82991;DHT22;72806;50.832;4.864;2023-11-18T14:06:57;11.30;94.20
82991;DHT22;72806;50.832;4.864;2023-11-18T14:09:24;11.30;94.30
82991;DHT22;72806;50.832;4.864;2023-11-18T14:11:52;11.30;94.30
82991;DHT22;72806;50.832;4.864;2023-11-18T14:14:20;11.30;94.30
82991;DHT22;72806;50.832;4.864;2023-11-18T14:16:47;11.40;94.40
82991;DHT22;72806;50.832;4.864;2023-11-18T14:19:16;11.30;94.40
82991;DHT22;72806;50.832;4.864;2023-11-18T14:21:44;11.40;94.40
82991;DHT22;72806;50.832;4.864;2023-11-18T14:24:11;11.30;94.40
82991;DHT22;72806;50.832;4.864;2023-11-18T14:26:38;11.40;94.50
82991;DHT22;72806;50.832;4.864;2023-11-18T14:29:07;11.40;94.50
82991;DHT22;72806;50.832;4.864;2023-11-18T14:31:34;11.40;94.50
82991;DHT22;72806;50.832;4.864;2023-11-18T14:34:01;11.40;94.50
82991;DHT22;72806;50.832;4.864;2023-11-18T14:36:30;11.40;94.50
82991;DHT22;72806;50.832;4.864;2023-11-18T14:38:57;11.40;94.50
82991;DHT22;72806;50.832;4.864;2023-11-18T14:41:25;11.40;94.50
82991;DHT22;72806;50.832;4.864;2023-11-18T14:43:52;11.40;94.60
82991;DHT22;72806;50.832;4.864;2023-11-18T14:46:20;11.40;94.60
82991;DHT22;72806;50.832;4.864;2023-11-18T14:48:47;11.40;94.60
82991;DHT22;72806;50.832;4.864;2023-11-18T14:51:14;11.40;94.60
82991;DHT22;72806;50.832;4.864;2023-11-18T14:53:43;11.40;94.70
82991;DHT22;72806;50.832;4.864;2023-11-18T14:56:10;11.40;94.70
82991;DHT22;72806;50.832;4.864;2023-11-18T14:58:38;11.40;94.80
82991;DHT22;72806;50.832;4.864;2023-11-18T15:01:05;11.40;94.80
82991;DHT22;72806;50.832;4.864;2023-11-18T15:03:33;11.50;94.90
82991;DHT22;72806;50.832;4.864;2023-11-18T15:06:01;11.50;94.90
82991;DHT22;72806;50.832;4.864;2023-11-18T15:08:28;11.50;94.90
82991;DHT22;72806;50.832;4.864;2023-11-18T15:10:57;11.50;94.90
82991;DHT22;72806;50.832;4.864;2023-11-18T15:13:24;11.50;94.90
82991;DHT22;72806;50.832;4.864;2023-11-18T15:15:52;11.50;94.90
82991;DHT22;72806;50.832;4.864;2023-11-18T15:18:19;11.50;95.00
82991;DHT22;72806;50.832;4.864;2023-11-18T15:20:46;10.80;94.80
82991;DHT22;72806;50.832;4.864;2023-11-18T15:23:14;11.50;95.10
82991;DHT22;72806;50.832;4.864;2023-11-18T15:25:42;11.50;95.10
82991;DHT22;72806;50.832;4.864;2023-11-18T15:28:11;11.50;95.10
82991;DHT22;72806;50.832;4.864;2023-11-18T15:30:40;11.50;95.10
82991;DHT22;72806;50.832;4.864;2023-11-18T15:33:07;11.50;95.10
82991;DHT22;72806;50.832;4.864;2023-11-18T15:35:35;11.50;95.20
82991;DHT22;72806;50.832;4.864;2023-11-18T15:38:03;11.50;95.20
82991;DHT22;72806;50.832;4.864;2023-11-18T15:40:31;11.50;95.50
82991;DHT22;72806;50.832;4.864;2023-11-18T15:42:58;11.50;95.20
82991;DHT22;72806;50.832;4.864;2023-11-18T15:45:26;11.50;95.20
82991;DHT22;72806;50.832;4.864;2023-11-18T15:47:54;11.50;95.30
82991;DHT22;72806;50.832;4.864;2023-11-18T15:50:21;11.50;95.30
82991;DHT22;72806;50.832;4.864;2023-11-18T15:52:49;11.50;95.30
82991;DHT22;72806;50.832;4.864;2023-11-18T15:55:17;11.50;95.40
82991;DHT22;72806;50.832;4.864;2023-11-18T15:57:46;11.50;95.40